Time;durP1;ratioP1;P1;durP2;ratioP2;P2;SDS_P1;SDS_P2;PMS_P1;PMS_P2;Temp;Humidity;BMP_temperature;BMP_pressure;BME280_temperature;BME280_humidity;BME280_pressure;Samples;Min_cycle;Max_cycle;Signal;HPM_P1;HPM_P2
2021/06/20 00:02:05;;;;;;;23.13;15.57;;;;;;;23.67;60.60;100469.72;5048014;27;113736;-71
2021/06/20 00:04:33;;;;;;;23.52;15.55;;;;;;;23.67;60.62;100486.78;5045240;27;114066;-71
2021/06/20 00:07:00;;;;;;;23.13;15.35;;;;;;;23.70;60.50;100485.63;5042222;27;123954;-71
2021/06/20 00:09:27;;;;;;;23.40;15.00;;;;;;;23.72;60.56;100470.09;5027031;27;123462;-71
2021/06/20 00:11:54;;;;;;;22.67;15.25;;;;;;;23.74;60.32;100470.75;5046573;27;114156;-71
2021/06/20 00:14:21;;;;;;;23.75;15.23;;;;;;;23.75;60.40;100460.78;5039844;27;113919;-71
2021/06/20 00:16:48;;;;;;;22.75;14.68;;;;;;;23.77;60.61;100450.66;5039836;27;124106;-71
2021/06/20 00:19:15;;;;;;;23.20;14.90;;;;;;;23.79;60.63;100446.81;5046025;27;123575;-71
2021/06/20 00:21:43;;;;;;;24.50;15.55;;;;;;;23.81;60.59;100460.16;5037608;27;113830;-71
2021/06/20 00:24:10;;;;;;;22.10;14.07;;;;;;;23.81;60.58;100461.03;5040315;27;114153;-71
2021/06/20 00:26:37;;;;;;;22.02;14.45;;;;;;;23.82;60.68;100462.69;5008358;27;122539;-71
2021/06/20 00:29:04;;;;;;;22.00;13.85;;;;;;;23.84;60.90;100459.84;5025981;27;123153;-72
2021/06/20 00:31:31;;;;;;;21.67;13.68;;;;;;;23.87;60.89;100460.34;5048525;27;114142;-71
2021/06/20 00:33:58;;;;;;;20.90;13.50;;;;;;;23.89;60.91;100458.31;5029248;27;113743;-71
2021/06/20 00:36:26;;;;;;;20.10;13.90;;;;;;;23.90;60.93;100451.91;5004955;27;122538;-71
2021/06/20 00:38:53;;;;;;;19.25;12.98;;;;;;;23.92;60.90;100456.31;5038347;27;124207;-72
2021/06/20 00:41:20;;;;;;;19.42;13.23;;;;;;;23.92;60.89;100462.56;5039222;27;115332;-71
2021/06/20 00:43:47;;;;;;;19.00;12.32;;;;;;;23.95;60.94;100466.81;5045933;27;114775;-71
2021/06/20 00:46:14;;;;;;;15.63;10.50;;;;;;;23.97;60.93;100470.19;5021808;27;124664;-71
2021/06/20 00:48:41;;;;;;;13.32;9.52;;;;;;;23.96;60.83;100453.13;5025079;27;120786;-72
2021/06/20 00:51:09;;;;;;;11.57;8.68;;;;;;;23.98;60.80;100464.63;5042960;27;115105;-71
2021/06/20 00:53:36;;;;;;;11.63;8.45;;;;;;;23.99;60.97;100469.00;5037787;27;114764;-72
2021/06/20 00:56:03;;;;;;;12.25;8.02;;;;;;;24.02;60.95;100467.84;5038245;27;123758;-71
2021/06/20 00:58:30;;;;;;;11.55;7.97;;;;;;;24.05;61.09;100467.47;5043597;27;124139;-71
2021/06/20 01:00:58;;;;;;;10.88;7.88;;;;;;;24.08;60.84;100461.75;5027938;27;112512;-71
2021/06/20 01:03:25;;;;;;;10.60;7.68;;;;;;;24.12;60.82;100465.81;5048369;27;114696;-72
2021/06/20 01:05:52;;;;;;;12.45;7.90;;;;;;;24.16;60.93;100463.63;5042540;27;123808;-71
2021/06/20 01:08:19;;;;;;;11.77;7.68;;;;;;;24.21;60.88;100455.84;5023681;27;123065;-72
2021/06/20 01:10:46;;;;;;;10.68;8.27;;;;;;;24.23;60.96;100476.31;5047644;27;114180;-72
2021/06/20 01:13:16;;;;;;;11.70;7.68;;;;;;;24.25;60.96;100479.69;5039646;27;113836;-71
2021/06/20 01:15:46;;;;;;;11.45;7.47;;;;;;;24.28;60.83;100476.66;5021444;27;123202;-71
2021/06/20 01:18:13;;;;;;;11.13;7.18;;;;;;;24.33;60.64;100475.31;5045708;27;124234;-72
2021/06/20 01:20:41;;;;;;;9.43;7.13;;;;;;;24.36;60.71;100475.00;5046651;27;114145;-71
2021/06/20 01:23:09;;;;;;;9.80;7.38;;;;;;;24.39;60.65;100490.88;5050313;27;113281;-72
2021/06/20 01:25:39;;;;;;;11.63;7.18;;;;;;;24.42;60.67;100495.97;5031042;27;123212;-71
2021/06/20 01:28:09;;;;;;;10.48;7.57;;;;;;;24.43;60.56;100498.50;5026794;27;123761;-72
2021/06/20 01:30:39;;;;;;;10.73;7.78;;;;;;;24.44;60.51;100505.59;5043027;27;115085;-72
2021/06/20 01:33:09;;;;;;;9.73;7.35;;;;;;;24.45;60.92;100511.88;5026388;27;115560;-72
2021/06/20 01:35:38;;;;;;;11.65;7.70;;;;;;;24.44;60.66;100497.47;5035251;27;123963;-72
2021/06/20 01:38:07;;;;;;;13.63;8.20;;;;;;;24.45;60.61;100490.22;5046130;27;123814;-72
2021/06/20 01:40:35;;;;;;;11.77;8.35;;;;;;;24.46;60.64;100486.47;5044709;27;114636;-72
2021/06/20 01:43:05;;;;;;;11.23;7.88;;;;;;;24.45;60.37;100474.81;5007813;27;112437;-72
2021/06/20 01:45:32;;;;;;;10.45;7.95;;;;;;;24.47;60.49;100477.38;5022585;27;124162;-72
2021/06/20 01:48:00;;;;;;;12.80;7.88;;;;;;;24.49;60.29;100480.75;5034993;27;123036;-72
2021/06/20 01:50:28;;;;;;;13.68;9.05;;;;;;;24.49;60.35;100464.50;5005015;27;113859;-72
2021/06/20 01:53:05;;;;;;;15.07;9.63;;;;;;;24.49;60.56;100456.38;5045536;27;114040;-72
2021/06/20 01:55:34;;;;;;;14.68;9.27;;;;;;;24.50;60.50;100449.94;5005901;27;123971;-72
2021/06/20 01:58:02;;;;;;;12.68;8.55;;;;;;;24.50;60.51;100444.50;5045307;27;123456;-72
2021/06/20 02:00:29;;;;;;;13.73;9.07;;;;;;;24.50;60.28;100428.28;5034959;22;114217;-69
2021/06/20 02:02:56;;;;;;;14.05;8.45;;;;;;;24.50;60.47;100433.69;4989318;28;114387;-69
2021/06/20 02:05:26;;;;;;;13.98;8.85;;;;;;;24.50;60.42;100460.75;4983469;28;124225;-69
2021/06/20 02:07:53;;;;;;;15.23;9.50;;;;;;;24.49;60.49;100459.91;4977299;28;124226;-69
2021/06/20 02:10:20;;;;;;;15.02;9.48;;;;;;;24.48;60.64;100458.22;4961286;28;114589;-69
2021/06/20 02:12:48;;;;;;;13.75;9.85;;;;;;;24.48;60.54;100468.22;4968453;28;114009;-69
2021/06/20 02:15:16;;;;;;;16.58;10.90;;;;;;;24.48;60.63;100457.38;4968839;28;123270;-69
2021/06/20 02:17:44;;;;;;;16.00;10.25;;;;;;;24.48;61.00;100462.78;4963420;28;124594;-71
2021/06/20 02:20:14;;;;;;;14.02;9.63;;;;;;;24.49;60.87;100453.66;4967429;28;115759;-72
2021/06/20 02:22:42;;;;;;;15.82;9.85;;;;;;;24.48;60.68;100481.75;4969215;28;114176;-71
2021/06/20 02:25:12;;;;;;;14.30;9.40;;;;;;;24.49;60.99;100507.81;4967610;28;124172;-72
2021/06/20 02:27:43;;;;;;;14.93;9.57;;;;;;;24.49;60.93;100502.41;4965555;28;124434;-69
2021/06/20 02:30:10;;;;;;;14.98;9.57;;;;;;;24.48;60.92;100506.13;4969543;28;114425;-70
2021/06/20 02:32:38;;;;;;;14.52;9.73;;;;;;;24.48;61.49;100516.94;4967676;28;114072;-69
2021/06/20 02:35:08;;;;;;;12.63;8.52;;;;;;;24.46;61.19;100508.16;4969946;28;123871;-70
2021/06/20 02:37:36;;;;;;;13.63;9.05;;;;;;;24.45;61.24;100495.63;4971468;28;123870;-70
2021/06/20 02:40:04;;;;;;;13.35;8.85;;;;;;;24.46;61.27;100497.31;4968150;28;116149;-69
2021/06/20 02:42:32;;;;;;;12.30;8.82;;;;;;;24.46;61.17;100502.72;4972653;28;114388;-69
2021/06/20 02:44:59;;;;;;;14.70;8.98;;;;;;;24.46;61.29;100502.72;4971377;28;124115;-69
2021/06/20 02:47:26;;;;;;;14.82;8.50;;;;;;;24.45;61.36;100511.88;4971591;28;124037;-70
2021/06/20 02:49:54;;;;;;;16.80;11.25;;;;;;;24.42;61.49;100517.63;4971056;28;114074;-70
2021/06/20 02:52:21;;;;;;;21.88;13.73;;;;;;;24.39;61.43;100517.94;4971561;28;114226;-70
2021/06/20 02:54:51;;;;;;;25.65;15.68;;;;;;;24.34;61.50;100520.31;4971270;28;123573;-69
2021/06/20 02:57:24;;;;;;;27.80;16.58;;;;;;;24.29;61.26;100516.22;4968481;28;122680;-69
2021/06/20 02:59:52;;;;;;;28.33;17.85;;;;;;;24.25;61.16;100517.59;4970858;28;114254;-69
2021/06/20 03:02:19;;;;;;;27.52;17.25;;;;;;;24.23;61.04;100508.78;4970054;28;114331;-70
2021/06/20 03:04:48;;;;;;;27.08;16.92;;;;;;;24.19;61.10;100507.44;4969811;28;124160;-70
2021/06/20 03:07:15;;;;;;;28.40;17.98;;;;;;;24.15;60.98;100514.19;4967630;28;124487;-69
2021/06/20 03:09:43;;;;;;;30.15;18.27;;;;;;;24.12;61.22;100522.63;4971642;28;115254;-69
2021/06/20 03:12:12;;;;;;;30.38;18.58;;;;;;;24.07;61.19;100530.41;4972523;28;114784;-69
2021/06/20 03:14:41;;;;;;;31.95;18.70;;;;;;;24.01;61.33;100533.75;4969349;28;124542;-70
2021/06/20 03:17:10;;;;;;;29.80;18.95;;;;;;;23.99;61.23;100543.91;4968053;28;122534;-69
2021/06/20 03:19:39;;;;;;;31.98;18.85;;;;;;;23.96;61.28;100555.03;4970290;28;114375;-69
2021/06/20 03:22:07;;;;;;;31.98;19.23;;;;;;;23.93;61.28;100558.09;4971223;28;114318;-70
2021/06/20 03:24:39;;;;;;;32.80;19.83;;;;;;;23.89;61.35;100558.41;4971787;28;124443;-69
2021/06/20 03:27:07;;;;;;;37.13;20.27;;;;;;;23.84;61.32;100558.03;4967976;28;124680;-69
2021/06/20 03:29:35;;;;;;;33.45;19.88;;;;;;;23.79;61.44;100559.53;4959235;28;113962;-69
2021/06/20 03:32:03;;;;;;;36.80;19.85;;;;;;;23.74;61.38;100573.53;4970167;28;114249;-69
2021/06/20 03:34:32;;;;;;;34.70;19.52;;;;;;;23.69;61.73;100565.03;4968154;28;124618;-68
2021/06/20 03:37:00;;;;;;;36.95;20.80;;;;;;;23.64;61.63;100567.38;4966326;28;123678;-68
2021/06/20 03:39:28;;;;;;;37.80;20.60;;;;;;;23.62;61.52;100566.69;4974172;28;114625;-68
2021/06/20 03:41:55;;;;;;;35.92;20.48;;;;;;;23.59;61.66;100570.56;4970406;28;113918;-68
2021/06/20 03:44:22;;;;;;;36.72;19.92;;;;;;;23.57;61.79;100567.19;4969348;28;124100;-69
2021/06/20 03:46:50;;;;;;;36.83;20.40;;;;;;;23.56;61.80;100575.44;4970676;28;123815;-68
2021/06/20 03:49:17;;;;;;;34.30;20.15;;;;;;;23.52;61.67;100562.25;4966540;28;114377;-68
2021/06/20 03:51:44;;;;;;;34.00;19.70;;;;;;;23.51;61.73;100562.44;4969922;28;113259;-68
2021/06/20 03:54:12;;;;;;;35.03;19.42;;;;;;;23.49;61.80;100565.28;4974029;28;123927;-69
2021/06/20 03:56:39;;;;;;;35.20;19.75;;;;;;;23.46;61.89;100565.59;4969900;28;123982;-68
2021/06/20 03:59:09;;;;;;;34.88;19.50;;;;;;;23.43;61.75;100575.88;4968896;28;115099;-69
2021/06/20 04:01:36;;;;;;;36.38;19.63;;;;;;;23.38;61.83;100579.06;4971667;28;115045;-68
2021/06/20 04:04:04;;;;;;;36.55;19.80;;;;;;;23.36;61.68;100578.38;4971666;28;124099;-68
2021/06/20 04:06:32;;;;;;;33.00;19.17;;;;;;;23.32;61.73;100585.97;4971432;28;123775;-68
2021/06/20 04:08:59;;;;;;;32.78;19.38;;;;;;;23.29;61.67;100580.03;4966079;28;115190;-68
2021/06/20 04:11:28;;;;;;;33.95;19.50;;;;;;;23.27;61.61;100577.47;4969503;28;114114;-68
2021/06/20 04:13:55;;;;;;;34.45;19.08;;;;;;;23.24;61.64;100574.25;4967975;28;124346;-70
2021/06/20 04:16:22;;;;;;;35.22;18.90;;;;;;;23.20;61.49;100575.56;4971278;28;124812;-69
2021/06/20 04:18:50;;;;;;;36.90;19.25;;;;;;;23.18;61.65;100572.19;4967769;28;114321;-70
2021/06/20 04:21:17;;;;;;;34.33;19.55;;;;;;;23.16;61.74;100585.00;4968297;28;114319;-70
2021/06/20 04:23:45;;;;;;;33.47;18.48;;;;;;;23.16;61.71;100590.41;4969256;28;123875;-69
2021/06/20 04:26:12;;;;;;;33.17;18.73;;;;;;;23.13;61.49;100592.41;4968187;28;123970;-70
2021/06/20 04:28:40;;;;;;;33.95;18.52;;;;;;;23.10;61.69;100598.13;4984328;28;113100;-70
2021/06/20 04:31:08;;;;;;;36.08;18.52;;;;;;;23.07;61.76;100603.81;4971847;28;113988;-70
2021/06/20 04:33:36;;;;;;;33.85;18.88;;;;;;;23.07;61.74;100602.97;4971594;28;123881;-70
2021/06/20 04:36:04;;;;;;;32.17;18.10;;;;;;;23.04;61.87;100614.97;4969164;28;124456;-70
2021/06/20 04:38:31;;;;;;;36.08;18.70;;;;;;;23.02;61.90;100616.94;4967433;28;114569;-70
2021/06/20 04:41:05;;;;;;;33.97;18.50;;;;;;;23.00;61.88;100613.56;4969867;28;113977;-71
2021/06/20 04:43:57;;;;;;;38.93;19.00;;;;;;;22.98;61.85;100604.75;4968834;28;124881;-71
2021/06/20 04:46:29;;;;;;;37.00;19.20;;;;;;;22.96;61.86;100614.84;4969571;28;123004;-70
2021/06/20 04:48:58;;;;;;;33.17;18.20;;;;;;;22.96;61.92;100614.00;4969158;28;115533;-70
2021/06/20 04:51:28;;;;;;;38.30;19.00;;;;;;;22.96;62.04;100611.31;4969177;28;115079;-70
2021/06/20 04:53:55;;;;;;;36.53;19.10;;;;;;;22.99;61.97;100616.41;4968645;28;124185;-70
2021/06/20 04:56:23;;;;;;;35.90;18.60;;;;;;;23.00;62.08;100608.16;4970482;28;124602;-70
2021/06/20 04:58:50;;;;;;;37.47;19.13;;;;;;;23.03;62.10;100624.06;4968453;28;114463;-71
2021/06/20 05:01:18;;;;;;;36.53;19.48;;;;;;;23.05;62.03;100627.44;4970194;28;113058;-71
2021/06/20 05:03:45;;;;;;;36.97;19.30;;;;;;;23.09;62.05;100628.84;4970082;28;123069;-70
2021/06/20 05:06:12;;;;;;;34.08;18.65;;;;;;;23.11;62.10;100637.66;4967885;28;123779;-68
2021/06/20 05:08:39;;;;;;;33.45;17.67;;;;;;;23.14;61.69;100631.09;4966267;28;113991;-69
2021/06/20 05:11:07;;;;;;;35.92;18.13;;;;;;;23.16;61.60;100622.81;4968968;28;113753;-69
2021/06/20 05:13:34;;;;;;;33.40;17.92;;;;;;;23.15;61.50;100623.81;4971376;28;124292;-70
2021/06/20 05:16:01;;;;;;;36.22;18.77;;;;;;;23.17;61.57;100629.91;4970434;28;124222;-70
2021/06/20 05:18:29;;;;;;;34.00;18.45;;;;;;;23.17;61.45;100635.31;4967499;28;114637;-70
2021/06/20 05:20:56;;;;;;;33.85;17.77;;;;;;;23.20;61.57;100635.00;4968579;28;114516;-71
2021/06/20 05:23:23;;;;;;;31.60;17.20;;;;;;;23.23;61.56;100640.13;4970839;28;124382;-70
2021/06/20 05:25:52;;;;;;;33.42;18.10;;;;;;;23.26;61.57;100650.59;4968833;28;123946;-71
2021/06/20 05:28:19;;;;;;;34.63;17.33;;;;;;;23.27;61.38;100657.72;4969037;28;113166;-70
2021/06/20 05:30:47;;;;;;;32.33;17.35;;;;;;;23.28;61.33;100659.38;4968778;28;114476;-70
2021/06/20 05:33:19;;;;;;;30.48;16.80;;;;;;;23.26;61.21;100653.28;4955101;28;124624;-69
2021/06/20 05:35:47;;;;;;;30.90;16.73;;;;;;;23.24;61.09;100658.00;4969958;28;123727;-70
2021/06/20 05:38:14;;;;;;;29.25;16.02;;;;;;;23.23;61.03;100667.13;4966955;28;115203;-70
2021/06/20 05:40:43;;;;;;;29.67;15.82;;;;;;;23.22;60.98;100654.63;4968677;28;115401;-70
2021/06/20 05:43:10;;;;;;;25.55;14.88;;;;;;;23.24;61.01;100671.50;4969988;28;123268;-69
2021/06/20 05:45:38;;;;;;;27.15;14.68;;;;;;;23.23;61.09;100678.78;4965503;28;124206;-69
2021/06/20 05:48:06;;;;;;;26.65;14.73;;;;;;;23.23;60.79;100677.94;4969355;28;114048;-70
2021/06/20 05:50:38;;;;;;;24.48;13.75;;;;;;;23.25;60.78;100686.75;4970780;28;114839;-70
2021/06/20 05:53:05;;;;;;;25.20;14.23;;;;;;;23.25;60.78;100687.56;4967507;28;124098;-70
2021/06/20 05:55:32;;;;;;;24.42;13.13;;;;;;;23.25;60.70;100686.75;4966388;28;123965;-70
2021/06/20 05:57:59;;;;;;;23.10;11.75;;;;;;;23.25;60.68;100697.56;4970123;28;114259;-70
2021/06/20 06:00:27;;;;;;;20.85;12.23;;;;;;;23.27;60.67;100700.94;4970130;28;113890;-70
2021/06/20 06:03:03;;;;;;;19.00;11.00;;;;;;;23.29;60.55;100694.38;4963922;28;123866;-70
2021/06/20 06:05:30;;;;;;;18.23;10.35;;;;;;;23.31;60.12;100691.50;4965869;28;124529;-70
2021/06/20 06:07:58;;;;;;;18.45;10.10;;;;;;;23.31;60.39;100697.75;4972149;28;114637;-70
2021/06/20 06:10:27;;;;;;;17.10;9.48;;;;;;;23.33;60.26;100695.75;4966159;28;115647;-69
2021/06/20 06:12:55;;;;;;;16.25;9.80;;;;;;;23.34;59.91;100685.81;4972294;28;124643;-68
2021/06/20 06:15:25;;;;;;;18.00;9.93;;;;;;;23.32;59.81;100701.34;4973834;28;124183;-69
2021/06/20 06:17:52;;;;;;;17.50;10.25;;;;;;;23.30;59.65;100700.63;4972573;28;114023;-69
2021/06/20 06:20:20;;;;;;;17.25;10.23;;;;;;;23.27;59.45;100711.75;4972909;28;114202;-68
2021/06/20 06:22:48;;;;;;;18.38;10.35;;;;;;;23.25;59.65;100711.06;4987292;28;124343;-69
2021/06/20 06:25:15;;;;;;;16.88;10.43;;;;;;;23.25;59.74;100719.16;4971653;28;124052;-69
2021/06/20 06:27:44;;;;;;;17.65;9.88;;;;;;;23.26;59.67;100723.56;4975020;28;115451;-68
2021/06/20 06:30:12;;;;;;;17.30;9.65;;;;;;;23.29;59.60;100723.25;4989456;28;114357;-69
2021/06/20 06:32:41;;;;;;;17.95;9.98;;;;;;;23.33;59.30;100730.03;4971992;28;124055;-69
2021/06/20 06:35:09;;;;;;;15.82;9.18;;;;;;;23.38;59.39;100713.38;4971302;28;123998;-69
2021/06/20 06:37:38;;;;;;;15.32;9.93;;;;;;;23.44;59.36;100724.41;4965286;28;114362;-68
2021/06/20 06:40:08;;;;;;;17.73;10.55;;;;;;;23.54;59.33;100723.47;4967028;28;114300;-69
2021/06/20 06:42:36;;;;;;;16.60;9.98;;;;;;;23.60;59.23;100729.09;4989179;28;124120;-69
2021/06/20 06:45:05;;;;;;;16.42;9.90;;;;;;;23.67;59.00;100740.97;4970778;28;124324;-69
2021/06/20 06:47:34;;;;;;;18.23;10.00;;;;;;;23.73;58.71;100734.06;4969969;28;114462;-69
2021/06/20 06:50:04;;;;;;;19.27;10.98;;;;;;;23.77;58.79;100735.47;4966729;28;113873;-69
2021/06/20 06:52:31;;;;;;;17.77;10.13;;;;;;;23.79;58.67;100727.22;4972922;28;124153;-69
2021/06/20 06:54:59;;;;;;;18.48;10.82;;;;;;;23.79;58.75;100733.50;4963716;28;124371;-69
2021/06/20 06:57:27;;;;;;;17.00;10.23;;;;;;;23.82;58.45;100743.97;4988688;28;113167;-70
2021/06/20 06:59:54;;;;;;;17.83;9.93;;;;;;;23.88;58.44;100727.16;4972244;28;114765;-70
2021/06/20 07:02:24;;;;;;;17.23;9.77;;;;;;;23.99;58.82;100717.06;4990068;28;123197;-70
2021/06/20 07:04:51;;;;;;;15.80;10.05;;;;;;;24.10;58.69;100725.75;4971465;28;124098;-70
2021/06/20 07:07:25;;;;;;;16.20;10.38;;;;;;;24.26;58.77;100730.41;4972956;28;114540;-70
2021/06/20 07:09:58;;;;;;;16.88;9.70;;;;;;;24.42;58.54;100726.06;4971890;28;114015;-70
2021/06/20 07:12:28;;;;;;;16.42;9.95;;;;;;;24.57;58.22;100720.94;4972069;28;124381;-70
2021/06/20 07:14:56;;;;;;;15.60;9.38;;;;;;;24.66;57.63;100720.78;4971129;28;124100;-70
2021/06/20 07:17:23;;;;;;;15.73;9.90;;;;;;;24.78;57.49;100728.59;4971646;28;115252;-70
2021/06/20 07:19:51;;;;;;;15.50;9.63;;;;;;;24.87;57.29;100722.22;4973838;28;114142;-70
2021/06/20 07:22:18;;;;;;;15.80;9.43;;;;;;;24.93;56.82;100721.53;4974158;28;123913;-70
2021/06/20 07:24:45;;;;;;;14.25;9.05;;;;;;;24.98;57.01;100724.59;4971442;28;124361;-70
2021/06/20 07:27:13;;;;;;;15.27;9.30;;;;;;;25.05;57.27;100725.63;4971730;28;114367;-70
2021/06/20 07:29:43;;;;;;;16.50;9.30;;;;;;;25.15;56.86;100730.06;4970269;28;113927;-70
2021/06/20 07:32:10;;;;;;;13.93;8.80;;;;;;;25.21;56.55;100722.09;4972479;28;123363;-70
2021/06/20 07:34:37;;;;;;;16.80;9.82;;;;;;;25.24;56.11;100718.22;4971630;28;124181;-70
2021/06/20 07:37:05;;;;;;;15.25;9.75;;;;;;;25.27;55.76;100734.16;4971773;28;113660;-71
2021/06/20 07:39:32;;;;;;;16.25;9.38;;;;;;;25.32;55.89;100731.78;4976674;28;114280;-70
2021/06/20 07:42:00;;;;;;;15.88;8.98;;;;;;;25.37;55.36;100740.28;4969433;28;123883;-70
2021/06/20 07:44:27;;;;;;;15.18;9.27;;;;;;;25.40;55.45;100756.19;4963867;28;123724;-71
2021/06/20 07:46:54;;;;;;;13.50;8.32;;;;;;;25.47;55.26;100750.97;4987150;28;113127;-69
2021/06/20 07:49:22;;;;;;;12.25;8.05;;;;;;;25.56;55.22;100759.94;4972204;28;113299;-70
2021/06/20 07:51:49;;;;;;;11.63;7.13;;;;;;;25.62;54.46;100760.09;4970901;28;124424;-70
2021/06/20 07:54:16;;;;;;;11.80;7.70;;;;;;;25.68;54.63;100758.59;4971526;28;124649;-71
2021/06/20 07:56:43;;;;;;;10.85;6.88;;;;;;;25.78;54.04;100759.25;4972129;28;113413;-70
2021/06/20 07:59:11;;;;;;;9.38;6.22;;;;;;;25.81;53.91;100758.91;4970489;28;114138;-70
2021/06/20 08:01:39;;;;;;;10.60;6.07;;;;;;;25.91;53.48;100763.31;5005763;22;124098;-61
2021/06/20 08:04:06;;;;;;;9.10;5.70;;;;;;;25.98;53.30;100764.34;4990194;28;124259;-61
2021/06/20 08:06:33;;;;;;;10.30;6.25;;;;;;;26.02;53.15;100763.00;4990262;28;115043;-61
2021/06/20 08:09:01;;;;;;;9.65;6.13;;;;;;;26.02;52.90;100765.69;4971890;28;114786;-62
2021/06/20 08:11:28;;;;;;;9.48;6.47;;;;;;;26.03;53.18;100764.66;4974182;28;123995;-62
2021/06/20 08:13:57;;;;;;;9.35;6.25;;;;;;;26.10;53.29;100768.38;4990041;28;124942;-61
2021/06/20 08:16:25;;;;;;;8.60;6.13;;;;;;;26.17;52.95;100750.41;4990391;28;114558;-62
2021/06/20 08:18:53;;;;;;;8.32;5.60;;;;;;;26.24;52.48;100753.28;4987194;28;114629;-62
2021/06/20 08:21:21;;;;;;;9.48;5.93;;;;;;;26.29;52.58;100760.88;4987919;28;124540;-62
2021/06/20 08:23:49;;;;;;;10.73;7.05;;;;;;;26.36;52.29;100772.75;4990002;28;124136;-62
2021/06/20 08:26:18;;;;;;;10.88;6.82;;;;;;;26.39;51.83;100780.53;4989053;28;114611;-61
2021/06/20 08:28:45;;;;;;;10.80;7.05;;;;;;;26.38;51.87;100787.00;4986535;28;114011;-62
2021/06/20 08:31:12;;;;;;;9.85;6.72;;;;;;;26.36;51.66;100789.03;4971786;28;123809;-62
2021/06/20 08:33:40;;;;;;;10.57;6.13;;;;;;;26.34;51.21;100782.94;4969876;28;124330;-62
2021/06/20 08:36:07;;;;;;;10.20;6.32;;;;;;;26.31;51.14;100786.84;4989927;28;114712;-62
2021/06/20 08:38:34;;;;;;;8.43;5.70;;;;;;;26.27;50.79;100804.50;4971663;28;114200;-62
2021/06/20 08:41:02;;;;;;;8.95;6.10;;;;;;;26.26;51.26;100801.94;4982334;28;123972;-62
2021/06/20 08:43:30;;;;;;;9.02;6.38;;;;;;;26.29;51.25;100809.75;4974908;28;122727;-62
2021/06/20 08:45:58;;;;;;;10.15;5.85;;;;;;;26.33;51.55;100811.09;4982973;28;114179;-62
2021/06/20 08:48:25;;;;;;;8.70;6.30;;;;;;;26.40;51.55;100815.66;4989387;28;114168;-62
2021/06/20 08:50:53;;;;;;;9.90;5.78;;;;;;;26.52;51.46;100816.16;4973992;28;123589;-62
2021/06/20 08:53:20;;;;;;;8.75;5.78;;;;;;;26.69;51.65;100816.13;4991861;28;124047;-62
2021/06/20 08:55:49;;;;;;;9.15;5.65;;;;;;;26.83;51.58;100812.69;4967040;28;114774;-62
2021/06/20 08:58:27;;;;;;;8.82;5.45;;;;;;;26.91;50.25;100823.50;4974137;28;114995;-62
2021/06/20 09:00:56;;;;;;;9.63;6.45;;;;;;;26.93;50.03;100818.75;4990708;28;124118;-63
2021/06/20 09:03:23;;;;;;;9.18;5.75;;;;;;;26.93;49.67;100797.00;4972399;28;124272;-60
2021/06/20 09:06:13;;;;;;;10.00;6.00;;;;;;;26.93;50.08;100807.88;4992254;28;114624;-61
2021/06/20 09:08:45;;;;;;;8.75;6.28;;;;;;;26.97;49.93;100797.50;4978613;28;114295;-61
2021/06/20 09:11:22;;;;;;;10.57;6.03;;;;;;;27.04;49.71;100797.63;4976224;28;124126;-61
2021/06/20 09:13:50;;;;;;;8.25;5.28;;;;;;;27.08;49.94;100798.97;4978085;28;124408;-61
2021/06/20 09:16:20;;;;;;;9.10;6.32;;;;;;;27.12;49.43;100803.03;4991350;28;114771;-61
2021/06/20 09:18:52;;;;;;;7.85;5.57;;;;;;;27.15;49.59;100805.38;4967465;28;114070;-61
2021/06/20 09:21:24;;;;;;;9.25;6.03;;;;;;;27.22;49.48;100806.38;4957463;28;123061;-61
2021/06/20 09:23:54;;;;;;;9.55;5.63;;;;;;;27.28;49.32;100811.13;4981515;28;123953;-61
2021/06/20 09:26:52;;;;;;;7.28;5.22;;;;;;;27.36;49.31;100794.75;4959022;28;113381;-61
2021/06/20 09:29:39;;;;;;;7.43;4.95;;;;;;;27.47;49.08;100789.91;4959598;28;114412;-61
2021/06/20 09:32:08;;;;;;;9.02;4.80;;;;;;;27.57;48.81;100804.13;4959557;28;123923;-61
2021/06/20 09:34:51;;;;;;;8.70;5.22;;;;;;;27.59;48.32;100807.50;4990444;28;124035;-61
2021/06/20 09:37:21;;;;;;;8.55;4.45;;;;;;;27.59;47.91;100799.34;4984101;28;114268;-61
2021/06/20 09:39:48;;;;;;;5.75;4.13;;;;;;;27.61;47.99;100816.31;4957258;28;113089;-61
2021/06/20 09:42:16;;;;;;;6.97;4.03;;;;;;;27.64;48.08;100817.84;4989667;28;124994;-61
2021/06/20 09:44:48;;;;;;;5.88;4.20;;;;;;;27.66;47.83;100819.34;4982501;28;124328;-62
2021/06/20 09:47:18;;;;;;;7.45;5.18;;;;;;;27.65;47.43;100816.81;4989049;28;115123;-61
2021/06/20 09:49:49;;;;;;;7.93;5.57;;;;;;;27.64;48.12;100823.28;4959122;28;115093;-61
2021/06/20 09:52:29;;;;;;;8.55;5.53;;;;;;;27.65;48.06;100817.69;4982904;28;124878;-61
2021/06/20 09:54:59;;;;;;;9.63;5.53;;;;;;;27.68;47.96;100817.28;4981738;28;124228;-61
2021/06/20 09:57:27;;;;;;;5.95;4.45;;;;;;;27.77;48.16;100813.47;4965521;28;113137;-61
2021/06/20 10:00:00;;;;;;;5.55;4.28;;;;;;;27.90;48.08;100803.91;4981665;28;114068;-61
2021/06/20 10:02:29;;;;;;;6.80;4.85;;;;;;;28.04;48.03;100816.69;4971194;28;124199;-61
2021/06/20 10:04:57;;;;;;;6.47;3.97;;;;;;;28.16;47.47;100814.34;4981536;28;124206;-62
2021/06/20 10:07:26;;;;;;;5.88;4.30;;;;;;;28.26;47.00;100825.00;4989430;28;114981;-61
2021/06/20 10:09:59;;;;;;;5.93;4.40;;;;;;;28.35;47.47;100823.88;4968473;28;113803;-62
2021/06/20 10:12:27;;;;;;;5.82;4.03;;;;;;;28.42;46.96;100819.34;4986983;28;125040;-61
2021/06/20 10:14:56;;;;;;;4.63;3.47;;;;;;;28.42;46.15;100819.34;4988503;28;124014;-62
2021/06/20 10:17:32;;;;;;;4.78;3.35;;;;;;;28.39;45.95;100814.28;4989166;28;114127;-62
2021/06/20 10:20:04;;;;;;;5.22;4.03;;;;;;;28.40;45.73;100815.97;4973372;28;113244;-62
2021/06/20 10:22:38;;;;;;;4.35;3.10;;;;;;;28.33;45.11;100836.81;4985975;28;124036;-62
2021/06/20 10:25:08;;;;;;;5.10;3.38;;;;;;;28.22;45.05;100823.66;4990189;28;123692;-62
2021/06/20 10:27:49;;;;;;;4.43;3.00;;;;;;;28.11;45.18;100827.69;4987280;28;114315;-62
2021/06/20 10:30:23;;;;;;;4.32;3.10;;;;;;;28.00;45.00;100831.69;4970636;28;113145;-62
2021/06/20 10:32:52;;;;;;;4.50;3.00;;;;;;;27.90;44.70;100842.00;4989996;28;124850;-62
2021/06/20 10:35:22;;;;;;;3.60;2.75;;;;;;;27.75;44.68;100840.03;4982013;28;124237;-63
2021/06/20 10:37:53;;;;;;;4.93;3.03;;;;;;;27.60;44.72;100830.97;4965833;28;114048;-62
2021/06/20 10:40:29;;;;;;;4.05;3.08;;;;;;;27.49;45.06;100834.13;4960409;28;114961;-63
2021/06/20 10:42:59;;;;;;;4.10;3.20;;;;;;;27.43;45.32;100829.41;4971920;28;123063;-62
2021/06/20 10:45:36;;;;;;;3.10;2.63;;;;;;;27.40;45.57;100840.63;4965307;28;123319;-62
2021/06/20 10:48:19;;;;;;;4.18;2.80;;;;;;;27.40;46.04;100838.75;4980653;28;114278;-63
2021/06/20 10:50:50;;;;;;;3.85;2.28;;;;;;;27.45;45.80;100827.34;4975738;28;114810;-63
2021/06/20 10:53:19;;;;;;;4.53;2.10;;;;;;;27.53;45.56;100840.88;4976107;28;125101;-63
2021/06/20 10:55:55;;;;;;;3.20;2.17;;;;;;;27.55;45.62;100834.22;4982231;28;124319;-63
2021/06/20 10:58:30;;;;;;;2.85;2.08;;;;;;;27.57;45.07;100826.72;4965480;28;113282;-63
2021/06/20 11:01:20;;;;;;;3.03;2.03;;;;;;;27.59;45.17;100818.38;4972014;28;113615;-63
2021/06/20 11:03:50;;;;;;;3.92;2.28;;;;;;;27.60;44.94;100814.66;4976956;28;124420;-62
2021/06/20 11:06:22;;;;;;;2.55;2.20;;;;;;;27.62;45.05;100812.59;4977816;28;124220;-63
2021/06/20 11:08:58;;;;;;;2.38;1.75;;;;;;;27.62;44.70;100812.59;4977250;28;114372;-63
2021/06/20 11:11:27;;;;;;;2.20;2.00;;;;;;;27.62;44.44;100809.03;4983202;28;114939;-63
2021/06/20 11:13:54;;;;;;;3.17;1.92;;;;;;;27.56;44.60;100807.88;4987882;28;124377;-63
2021/06/20 11:16:28;;;;;;;3.42;1.70;;;;;;;27.49;44.30;100806.91;4981390;28;123889;-63